Terminal Aerodrome Forecast
Issued by NWS

Home | Current Version | Previous Version | Text Only | Print | Product List | Glossary On
Versions: 1 2 3 4 5 6 7 8 9 10 11 12 13
000
FTUS46 KSEW 281226 AAA
TAFPAE
TAF AMD
KPAE 281226Z 2812/2912 17009KT P6SM SCT028 OVC060
      TEMPO 2812/2814 -RA BKN028 OVC060
     FM281400 19013KT P6SM -RA OVC022
     FM282200 20008KT P6SM SCT030 BKN050
     FM290300 VRB03KT P6SM SCT060 BKN100=

USA.gov is the U.S. government's official web portal to all federal, state and local government web resources and services.